Latest Weather Observations for St Helens

IDT60801

Issued at 9:02 am EDT Tuesday 17 October 2017 (issued every 30 minutes, with the page automatically refreshed every 10 minutes)

About weather observations | Map of weather stations | Latest weather observations for TAS | Other Formats
Station Details ID: 092120 Name: ST HELENS AERODROME Lat: -41.34 Lon: 148.28 Height: 48.0 m
Data from the previous 72 hours. | See also: Recent months at St Helens
Date/Time
EDT
Temp
°C
App
Temp
°C
Dew
Point
°C
Rel
Hum
%
Delta-T
°C
Wind Press
QNH
hPa
Press
MSL
hPa
Rain since
9am
mm
Dir  Spd
km/h
Gust
km/h
Spd
kts
Gust
kts
17/09:00am 14.5 13.5 12.4 87 1.1 NW 9 11 5 6 1024.3 1024.3 0.0
17/08:53am 14.2 13.2 12.2 88 1.1 NW 9 11 5 6 1024.3 - 0.0
17/08:30am 12.3 10.5 10.9 91 0.7 NNW 11 15 6 8 1024.3 - 0.0
17/08:00am 10.9 8.6 10.6 98 0.2 NW 13 17 7 9 1024.2 - 0.0
17/07:56am 10.9 9.0 10.6 98 0.2 NW 11 15 6 8 1024.2 - 0.0
17/07:37am 10.8 8.5 10.3 97 0.3 NW 13 15 7 8 1024.1 - 0.0
17/07:30am 10.7 8.7 10.1 96 0.3 NW 11 15 6 8 1024.1 - 0.0
17/07:13am 10.6 8.6 10.3 98 0.2 NW 11 15 6 8 1024.1 - 0.0
17/07:00am 10.3 8.3 10.0 98 0.2 NW 11 15 6 8 1024.0 - 0.0
17/06:47am 10.8 9.7 10.5 98 0.2 WNW 7 13 4 7 1023.9 - 0.0
17/06:43am 10.8 9.7 10.5 98 0.2 WNW 7 13 4 7 1023.9 - 0.0
17/06:35am 10.8 9.3 10.5 98 0.2 NW 9 15 5 8 1023.8 - 0.0
17/06:30am 10.6 9.0 10.3 98 0.2 NW 9 15 5 8 1023.8 - 0.0
17/06:23am 11.0 9.9 10.7 98 0.2 WNW 7 11 4 6 1023.8 - 0.0
17/06:00am 11.6 10.7 11.3 98 0.2 NW 7 13 4 7 1023.5 1023.5 0.0
17/05:37am 12.1 11.3 11.8 98 0.2 W 7 11 4 6 1023.5 - 0.0
17/05:32am 12.2 11.4 11.7 97 0.3 W 7 11 4 6 1023.4 - 0.0
17/05:30am 12.2 11.6 11.7 97 0.3 W 6 11 3 6 1023.4 - 0.0
17/05:00am 12.6 12.1 12.0 96 0.3 WSW 6 9 3 5 1023.4 - 0.0
17/04:30am 12.6 12.9 12.1 97 0.3 W 2 7 1 4 1023.1 - 0.0
17/04:00am 12.7 12.2 12.2 97 0.3 NW 6 9 3 5 1023.3 - 0.0
17/03:30am 12.4 11.3 11.8 96 0.3 NW 9 13 5 7 1023.7 - 0.0
17/03:00am 12.4 12.2 11.8 96 0.3 NW 4 11 2 6 1023.9 1023.9 0.0
17/02:30am 12.4 12.2 11.8 96 0.3 N 4 11 2 6 1024.2 - 0.0
17/02:20am 12.3 12.4 11.5 95 0.4 N 2 9 1 5 1024.3 - 0.0
17/02:00am 12.5 12.3 11.7 95 0.4 NNW 4 7 2 4 1024.3 - 0.0
17/01:30am 12.5 12.2 11.6 94 0.5 ENE 4 7 2 4 1024.5 - 0.0
17/01:00am 12.6 11.9 11.5 93 0.6 NNW 6 13 3 7 1024.9 - 0.0
17/12:30am 12.5 11.5 10.9 90 0.8 NNW 7 9 4 5 1025.0 - 0.0
17/12:00am 12.9 11.7 10.4 85 1.3 NW 7 9 4 5 1025.0 1025.0 0.0
 
Date/Time
EDT
Temp
°C
App
Temp
°C
Dew
Point
°C
Rel
Hum
%
Delta-T
°C
Wind Press
QNH
hPa
Press
MSL
hPa
Rain since
9am
mm
Dir  Spd
km/h
Gust
km/h
Spd
kts
Gust
kts
16/11:30pm 13.2 12.0 10.4 83 1.5 N 7 11 4 6 1024.9 - 0.0
16/11:00pm 13.9 12.3 10.3 79 1.9 NNW 9 15 5 8 1024.9 - 0.0
16/10:30pm 14.1 12.4 11.3 83 1.5 N 11 15 6 8 1025.0 - 0.0
16/10:00pm 14.2 12.2 11.5 84 1.4 N 13 20 7 11 1025.0 - 0.0
16/09:30pm 14.3 11.9 11.5 83 1.5 N 15 20 8 11 1025.1 - 0.0
16/09:00pm 14.5 12.2 11.6 83 1.5 N 15 22 8 12 1025.0 1025.0 0.0
16/08:30pm 14.9 12.5 11.5 80 1.8 NNE 15 22 8 12 1024.7 - 0.0
16/08:00pm 14.9 12.4 11.1 78 2.0 NNE 15 24 8 13 1024.2 - 0.0
16/07:30pm 16.0 13.0 9.4 65 3.4 N 15 20 8 11 1023.9 - 0.0
16/07:00pm 16.2 13.0 9.8 66 3.4 N 17 32 9 17 1023.7 - 0.0
16/06:30pm 16.8 13.7 10.2 65 3.5 N 17 26 9 14 1023.6 - 0.0
16/06:00pm 18.1 15.3 10.0 59 4.3 N 15 26 8 14 1023.3 1023.3 0.0
16/05:30pm 19.0 15.3 10.0 56 4.8 NNE 20 28 11 15 1023.1 - 0.0
16/05:00pm 19.2 15.6 10.5 57 4.7 N 20 32 11 17 1023.0 - 0.0
16/04:30pm 19.6 15.7 10.9 57 4.7 NNE 22 30 12 16 1023.0 - 0.0
16/04:00pm 19.3 15.8 10.8 58 4.6 N 20 30 11 16 1023.1 - 0.0
16/03:30pm 19.0 15.6 11.3 61 4.2 NNE 20 30 11 16 1023.3 - 0.0
16/03:00pm 19.0 14.9 11.6 62 4.1 NNE 24 32 13 17 1023.4 1023.4 0.0
16/02:30pm 18.4 13.9 11.5 64 3.8 NNE 26 37 14 20 1023.7 - 0.0
16/02:00pm 18.6 15.0 11.9 65 3.7 NE 22 32 12 17 1024.1 - 0.0
16/01:30pm 18.6 15.3 11.7 64 3.8 NNE 20 30 11 16 1024.5 - 0.0
16/01:00pm 17.8 14.5 11.6 67 3.4 NNE 20 26 11 14 1024.8 - 0.0
16/12:30pm 17.7 14.4 11.7 68 3.3 NNE 20 28 11 15 1025.2 - 0.0
16/12:00pm 16.9 14.2 11.8 72 2.8 N 17 24 9 13 1025.6 1025.6 0.0
16/11:30am 16.6 13.4 11.3 71 2.9 N 19 24 10 13 1025.8 - 0.0
16/11:00am 16.5 13.7 11.4 72 2.8 NNE 17 24 9 13 1026.2 - 0.0
16/10:30am 15.9 14.1 10.7 71 2.8 NNE 11 17 6 9 1026.4 - 0.0
16/10:00am 15.4 14.5 10.8 74 2.4 NNW 6 11 3 6 1026.6 - 0.0
16/09:49am 15.4 14.5 10.6 73 2.5 N 6 11 3 6 1026.6 - 0.0
16/09:30am 15.0 13.9 10.6 75 2.3 WNW 7 11 4 6 1026.6 - 0.0
16/09:00am 14.0 13.0 10.2 78 2.0 W 6 11 3 6 1026.6 1026.6 0.0
16/08:30am 13.6 12.3 10.0 79 1.9 W 7 13 4 7 1026.6 - 0.0
16/08:00am 13.3 12.2 10.1 81 1.7 W 6 11 3 6 1026.6 - 0.0
16/07:30am 13.0 12.7 10.2 83 1.4 WSW 2 9 1 5 1026.5 - 0.0
16/07:00am 12.6 12.3 10.0 84 1.3 SW 2 7 1 4 1026.2 - 0.0
16/06:30am 12.5 12.1 9.9 84 1.3 SW 2 6 1 3 1026.0 - 0.0
16/06:00am 12.6 12.2 9.8 83 1.4 W 2 6 1 3 1025.8 1025.8 0.0
16/05:30am 12.8 12.9 10.0 83 1.4 CALM 0 0 0 0 1025.7 - 0.0
16/05:00am 13.0 13.1 10.0 82 1.5 CALM 0 0 0 0 1025.6 - 0.0
16/04:30am 13.0 13.1 10.0 82 1.5 CALM 0 0 0 0 1025.6 - 0.0
16/04:00am 13.0 13.1 10.2 83 1.4 CALM 0 2 0 1 1025.8 - 0.0
16/03:30am 12.9 13.0 10.1 83 1.4 CALM 0 0 0 0 1025.9 - 0.0
16/03:00am 13.0 13.1 10.2 83 1.4 CALM 0 0 0 0 1026.0 1026.0 0.0
16/02:30am 13.0 13.2 10.4 84 1.4 CALM 0 0 0 0 1026.2 - 0.0
16/02:00am 12.9 13.1 10.4 85 1.3 CALM 0 0 0 0 1026.3 - 0.0
16/01:30am 13.0 12.8 10.5 85 1.3 S 2 7 1 4 1026.7 - 0.0
16/01:00am 13.0 12.1 10.5 85 1.3 S 6 7 3 4 1026.8 - 0.0
16/12:30am 13.0 11.9 10.5 85 1.3 S 7 9 4 5 1026.8 - 0.0
16/12:00am 13.1 12.2 10.8 86 1.2 S 6 7 3 4 1026.7 1026.7 0.0
 
Date/Time
EDT
Temp
°C
App
Temp
°C
Dew
Point
°C
Rel
Hum
%
Delta-T
°C
Wind Press
QNH
hPa
Press
MSL
hPa
Rain since
9am
mm
Dir  Spd
km/h
Gust
km/h
Spd
kts
Gust
kts
15/11:30pm 13.0 11.9 10.7 86 1.2 S 7 11 4 6 1026.8 - 0.0
15/11:00pm 13.1 11.7 10.8 86 1.2 S 9 13 5 7 1026.8 - 0.0
15/10:30pm 13.1 11.7 10.8 86 1.2 S 9 15 5 8 1026.7 - 0.0
15/10:00pm 13.1 11.7 11.0 87 1.1 S 9 17 5 9 1026.6 - 0.0
15/09:30pm 13.2 11.6 11.4 89 1.0 S 11 20 6 11 1026.5 - 0.0
15/09:00pm 13.1 11.5 11.5 90 0.8 S 11 19 6 10 1026.3 1026.3 0.0
15/08:32pm 12.7 11.2 11.8 94 0.5 S 11 17 6 9 1025.8 - 0.0
15/08:30pm 12.7 11.2 11.8 94 0.5 S 11 17 6 9 1025.8 - 0.0
15/08:15pm 12.7 11.1 11.6 93 0.6 S 11 15 6 8 1025.5 - 0.0
15/08:00pm 13.0 11.1 11.9 93 0.6 SSE 13 20 7 11 1025.3 - 0.0
15/07:38pm 13.3 11.1 12.2 93 0.6 SSE 15 26 8 14 1025.0 - 0.0
15/07:30pm 13.3 10.7 12.0 92 0.7 S 17 26 9 14 1024.9 - 0.0
15/07:00pm 14.2 10.7 12.2 88 1.1 S 22 37 12 20 1024.1 - 0.0
15/06:30pm 16.0 11.5 9.9 67 3.2 S 24 41 13 22 1023.6 - 0.0
15/06:00pm 16.5 12.4 11.4 72 2.7 S 24 37 13 20 1022.9 1022.9 0.0
15/05:30pm 16.8 12.9 12.1 74 2.6 S 24 39 13 21 1022.5 - 0.0
15/05:00pm 17.5 14.3 12.0 70 3.0 SSE 20 32 11 17 1021.8 - 0.0
15/04:30pm 19.7 17.0 11.7 60 4.4 SSE 17 26 9 14 1021.3 - 0.0
15/04:00pm 21.6 19.3 10.4 49 6.1 SSE 13 20 7 11 1020.9 - 0.0
15/03:30pm 25.4 20.9 4.0 25 10.6 NE 17 24 9 13 1020.5 - 0.0
15/03:00pm 25.9 21.8 4.4 25 10.8 NNE 15 20 8 11 1020.3 1020.3 0.0
15/02:30pm 25.5 20.4 4.0 25 10.7 NE 20 26 11 14 1020.3 - 0.0
15/02:00pm 25.9 20.6 3.2 23 11.2 ENE 20 33 11 18 1020.3 - 0.0
15/01:30pm 26.5 21.7 5.5 26 10.8 ENE 20 26 11 14 1020.3 - 0.0
15/01:00pm 25.8 22.4 5.9 28 10.3 NNE 13 17 7 9 1020.2 - 0.0
15/12:30pm 24.9 22.1 7.1 32 9.3 N 11 13 6 7 1020.4 - 0.0
15/12:00pm 24.1 22.1 8.5 37 8.3 N 9 15 5 8 1020.8 1020.8 0.0
15/11:30am 23.0 21.9 8.3 39 7.8 NNW 4 11 2 6 1021.1 - 0.0
15/11:00am 20.7 19.1 8.7 46 6.3 N 7 11 4 6 1021.2 - 0.0
15/10:30am 18.6 16.2 8.8 53 5.1 N 11 13 6 7 1021.4 - 0.0
15/10:00am 16.7 14.6 8.1 57 4.4 NW 9 13 5 7 1021.3 - 0.0
15/09:30am 14.8 12.8 8.5 66 3.2 NW 9 13 5 7 1021.1 - 0.0
15/09:00am 13.2 11.1 8.1 71 2.5 NW 9 13 5 7 1021.0 1021.0 0.0
15/08:30am 12.4 10.1 7.5 72 2.4 WNW 9 17 5 9 1020.5 - 0.0
15/08:00am 11.7 9.3 6.8 72 2.3 WNW 9 17 5 9 1020.3 - 0.0
15/07:30am 10.6 8.1 6.6 76 1.9 NW 9 13 5 7 1020.1 - 0.0
15/07:00am 9.5 6.6 6.6 82 1.4 NW 11 13 6 7 1019.8 - 0.0
15/06:30am 8.3 5.8 6.4 88 0.9 NNW 9 13 5 7 1019.4 - 0.0
15/06:00am 8.6 5.3 6.4 86 1.0 NNW 13 15 7 8 1019.3 1019.3 0.0
15/05:30am 9.1 6.6 6.4 83 1.3 NW 9 15 5 8 1019.4 - 0.0
15/05:00am 9.1 6.9 6.0 81 1.4 NW 7 11 4 6 1019.3 - 0.0
15/04:30am 9.2 6.6 6.3 82 1.3 NW 9 15 5 8 1019.4 - 0.0
15/04:00am 9.6 6.3 6.5 81 1.4 NW 13 19 7 10 1019.4 - 0.0
15/03:30am 9.5 6.6 6.6 82 1.4 NW 11 13 6 7 1019.7 - 0.0
15/03:00am 9.7 6.8 6.6 81 1.4 NNW 11 15 6 8 1020.0 1020.0 0.0
15/02:30am 10.2 7.1 7.1 81 1.5 NW 13 15 7 8 1020.2 - 0.0
15/02:00am 9.8 7.0 7.1 83 1.3 NNW 11 15 6 8 1020.2 - 0.0
15/01:30am 10.5 7.8 7.2 80 1.6 NNW 11 17 6 9 1020.4 - 0.0
15/01:00am 10.8 7.7 7.3 79 1.7 NNW 13 15 7 8 1020.7 - 0.0
15/12:30am 11.2 8.2 7.5 78 1.8 NW 13 17 7 9 1020.6 - 0.0
15/12:00am 11.3 8.7 7.8 79 1.7 NW 11 13 6 7 1020.8 1020.8 0.0
 
Date/Time
EDT
Temp
°C
App
Temp
°C
Dew
Point
°C
Rel
Hum
%
Delta-T
°C
Wind Press
QNH
hPa
Press
MSL
hPa
Rain since
9am
mm
Dir  Spd
km/h
Gust
km/h
Spd
kts
Gust
kts
14/11:30pm 11.4 8.8 7.7 78 1.8 NW 11 13 6 7 1020.6 - 0.0
14/11:00pm 12.0 10.2 7.9 76 2.0 WNW 7 11 4 6 1020.9 - 0.0
14/10:30pm 12.8 10.1 7.5 70 2.6 WNW 11 15 6 8 1021.0 - 0.0
14/10:00pm 13.1 10.5 7.8 70 2.6 W 11 17 6 9 1020.9 - 0.0
14/09:30pm 13.3 11.2 8.2 71 2.5 W 9 17 5 9 1020.8 - 0.0
14/09:00pm 13.5 10.9 7.7 68 2.8 W 11 17 6 9 1020.7 1020.7 0.0
14/08:30pm 13.8 12.2 7.8 67 3.0 WSW 6 11 3 6 1020.6 - 0.0
14/08:00pm 14.3 11.8 8.0 66 3.1 WSW 11 17 6 9 1020.2 - 0.0
14/07:30pm 14.7 11.4 8.2 65 3.3 WNW 15 22 8 12 1020.1 - 0.0
14/07:00pm 15.6 12.3 8.1 61 3.8 NW 15 20 8 11 1019.7 - 0.0
14/06:30pm 16.6 13.3 8.1 57 4.3 NW 15 22 8 12 1019.3 - 0.0
14/06:00pm 17.1 15.3 8.0 55 4.6 N 7 20 4 11 1019.1 1019.1 0.0
14/05:30pm 16.8 14.6 8.0 56 4.5 SSE 9 19 5 10 1018.9 - 0.0
14/05:00pm 20.0 18.3 6.0 40 7.0 SSW 4 7 2 4 1018.9 - 0.0
14/04:30pm 19.3 17.1 5.4 40 6.8 NNE 6 9 3 5 1019.0 - 0.0
14/04:00pm 18.2 14.8 5.8 44 6.1 ENE 13 19 7 10 1019.2 - 0.0
14/03:30pm 17.6 13.7 7.1 50 5.3 E 17 20 9 11 1019.6 - 0.0
14/03:00pm 17.3 12.8 4.3 42 6.1 NNE 17 24 9 13 1020.0 1020.0 0.0
14/02:30pm 16.3 11.2 4.0 44 5.7 ENE 20 28 11 15 1020.3 - 0.0
14/02:00pm 15.8 10.9 4.2 46 5.4 NE 19 24 10 13 1020.9 - 0.0
14/01:30pm 16.0 10.8 3.4 43 5.8 NE 20 28 11 15 1021.3 - 0.0
14/01:00pm 15.3 9.8 1.8 40 6.0 ENE 20 28 11 15 1021.6 - 0.0
14/12:30pm 15.0 9.5 1.9 41 5.8 ENE 20 26 11 14 1021.9 - 0.0
14/12:00pm 14.1 9.3 2.7 46 5.1 NE 17 22 9 12 1022.1 1022.1 0.0
14/11:30am 14.4 11.5 4.4 51 4.6 NNE 9 17 5 9 1022.4 - 0.0
14/11:00am 13.5 9.8 2.4 47 4.9 N 11 17 6 9 1022.5 - 0.0
14/10:30am 12.4 9.0 1.7 48 4.6 NNW 9 11 5 6 1022.9 - 0.0
14/10:00am 11.5 8.4 1.5 50 4.2 NW 7 9 4 5 1023.2 - 0.0
14/09:30am 9.9 7.2 3.9 66 2.6 NW 7 11 4 6 1023.0 - 0.0

Other Formats:

Comma delimited format used in spreadsheet applications
http://www.bom.gov.au/fwo/IDT60801/IDT60801.95981.axf

JavaScript Object Notation format (JSON) in row-major order
http://www.bom.gov.au/fwo/IDT60801/IDT60801.95981.json